Terminal Aerodrome Forecast
Issued by NWS

Home | Current Version | Previous Version | Text Only | Print | Product List | Glossary On
Versions: 1 2 3 4 5 6 7 8 9 10 11 12 13 14
000
FTUS44 KLIX 272300
TAFGPT
TAF
KGPT 272329Z 2800/2824 15010KT 2SM -RA OVC002
     FM280600 18010KT 1/4SM FG OVC001
     FM281200 22009KT 1/2SM FG OVC002
     FM281900 25006KT P6SM SHRA BKN015
     FM282300 32005KT P6SM SHRA OVC020=

USA.gov is the U.S. government's official web portal to all federal, state and local government web resources and services.